createdAt,value
2023-03-21T00:00:19.827Z,2.90
2023-03-21T00:03:21.542Z,3.13
2023-03-21T00:06:23.124Z,3.90
2023-03-21T00:09:24.806Z,3.65
2023-03-21T00:12:26.312Z,3.83
2023-03-21T00:15:39.900Z,3.45
2023-03-21T00:18:48.794Z,2.90
2023-03-21T00:22:08.802Z,3.00
2023-03-21T00:25:11.013Z,3.00
2023-03-21T00:28:12.522Z,3.40
2023-03-21T00:31:14.793Z,3.92
2023-03-21T00:34:22.483Z,3.08
2023-03-21T00:37:34.001Z,3.63
2023-03-21T00:40:43.771Z,3.00
2023-03-21T00:43:51.876Z,3.65
2023-03-21T00:47:06.275Z,2.95
2023-03-21T00:50:09.771Z,2.72
2023-03-21T00:53:11.376Z,4.47
2023-03-21T00:56:12.849Z,3.53
2023-03-21T00:59:14.318Z,2.15
2023-03-21T01:02:22.723Z,3.20
2023-03-21T01:05:53.645Z,3.45
2023-03-21T01:08:55.175Z,2.50
2023-03-21T01:11:56.807Z,3.20
2023-03-21T01:14:58.664Z,2.53
2023-03-21T01:18:01.977Z,3.58
2023-03-21T01:21:08.104Z,2.72
2023-03-21T01:24:09.939Z,2.60
2023-03-21T01:27:11.422Z,3.08
2023-03-21T01:30:22.875Z,2.72
2023-03-21T01:33:25.650Z,3.97
2023-03-21T01:36:27.388Z,2.60
2023-03-21T01:39:35.276Z,3.58
2023-03-21T01:42:36.821Z,2.80
2023-03-21T01:46:06.589Z,2.45
2023-03-21T01:49:35.929Z,3.03
2023-03-21T01:52:49.938Z,2.67
2023-03-21T01:56:38.733Z,2.63
2023-03-21T01:59:50.303Z,3.05
2023-03-21T02:03:11.719Z,2.95
2023-03-21T02:06:39.998Z,2.35
2023-03-21T02:09:56.075Z,2.85
2023-03-21T02:13:09.255Z,1.90
2023-03-21T02:16:13.448Z,2.30
2023-03-21T02:19:52.739Z,2.53
2023-03-21T02:23:15.570Z,2.05
2023-03-21T02:26:42.031Z,3.75
2023-03-21T02:30:28.129Z,2.95
2023-03-21T02:33:42.900Z,2.05
2023-03-21T02:36:47.932Z,1.98
2023-03-21T02:40:07.918Z,3.15
2023-03-21T02:43:35.221Z,1.60
2023-03-21T02:46:59.742Z,2.60
2023-03-21T02:50:12.692Z,2.25
2023-03-21T02:53:19.810Z,2.38
2023-03-21T02:56:24.559Z,2.38
2023-03-21T02:59:31.921Z,2.50
2023-03-21T03:02:38.039Z,2.63
2023-03-21T03:05:49.138Z,3.03
2023-03-21T03:09:07.821Z,1.92
2023-03-21T03:12:38.706Z,2.40
2023-03-21T03:16:11.328Z,2.00
2023-03-21T03:19:27.224Z,2.75
2023-03-21T03:22:39.316Z,2.25
2023-03-21T03:25:51.041Z,1.85
2023-03-21T03:29:01.102Z,2.70
2023-03-21T03:32:17.494Z,2.92
2023-03-21T03:35:22.620Z,2.72
2023-03-21T03:38:27.620Z,2.75
2023-03-21T03:41:50.283Z,3.22
2023-03-21T03:44:53.450Z,2.45
2023-03-21T03:48:06.806Z,3.05
2023-03-21T03:51:18.038Z,2.28
2023-03-21T03:54:43.929Z,2.40
2023-03-21T03:57:45.862Z,2.10
2023-03-21T04:00:47.779Z,2.10
2023-03-21T04:03:54.460Z,2.50
2023-03-21T04:07:00.549Z,2.63
2023-03-21T04:10:02.093Z,2.17
2023-03-21T04:13:06.898Z,2.60
2023-03-21T04:16:17.735Z,2.60
2023-03-21T04:19:19.348Z,2.63
2023-03-21T04:22:21.006Z,1.98
2023-03-21T04:25:32.792Z,3.13
2023-03-21T04:28:36.934Z,1.35
2023-03-21T04:31:49.901Z,3.05
2023-03-21T04:34:54.060Z,1.42
2023-03-21T04:37:56.973Z,2.53
2023-03-21T04:40:58.631Z,2.40
2023-03-21T04:44:00.122Z,1.92
2023-03-21T04:47:01.797Z,1.75
2023-03-21T04:50:04.096Z,1.85
2023-03-21T04:53:05.719Z,2.72
2023-03-21T04:56:07.560Z,2.80
2023-03-21T04:59:15.445Z,3.00
2023-03-21T05:02:16.981Z,2.08
2023-03-21T05:05:18.475Z,2.13
2023-03-21T05:08:20.416Z,2.05
2023-03-21T05:11:22.559Z,2.28
2023-03-21T05:14:26.752Z,2.40
2023-03-21T05:17:28.509Z,2.45
2023-03-21T05:20:31.994Z,2.72
2023-03-21T05:23:38.077Z,3.47
2023-03-21T05:26:41.050Z,3.47
2023-03-21T05:29:48.760Z,2.13
2023-03-21T05:32:51.164Z,1.65
2023-03-21T05:35:54.327Z,3.63
2023-03-21T05:38:56.015Z,2.10
2023-03-21T05:41:57.553Z,2.25
2023-03-21T05:44:59.759Z,2.47
2023-03-21T05:48:06.527Z,3.05
2023-03-21T05:51:17.608Z,3.15
2023-03-21T05:54:19.077Z,3.30
2023-03-21T05:57:22.957Z,2.53
2023-03-21T06:00:30.936Z,3.10
2023-03-21T06:03:56.685Z,2.92
2023-03-21T06:07:01.362Z,3.25
2023-03-21T06:10:04.531Z,4.00
2023-03-21T06:13:06.540Z,3.20
2023-03-21T06:16:09.019Z,3.30
2023-03-21T06:19:11.778Z,4.65
2023-03-21T06:22:28.544Z,3.85
2023-03-21T06:25:30.141Z,2.80
2023-03-21T06:28:32.263Z,3.50
2023-03-21T06:31:33.900Z,3.47
2023-03-21T06:34:39.505Z,5.78
2023-03-21T06:37:42.861Z,2.30
2023-03-21T06:40:49.078Z,2.22
2023-03-21T06:43:50.964Z,4.28
2023-03-21T06:46:54.276Z,3.92
2023-03-21T06:49:56.671Z,2.85
2023-03-21T06:52:59.319Z,3.35
2023-03-21T06:56:03.054Z,2.20
2023-03-21T06:59:06.644Z,2.83
2023-03-21T07:02:25.893Z,3.25
2023-03-21T07:05:50.614Z,3.13
2023-03-21T07:08:52.867Z,3.25
2023-03-21T07:11:54.380Z,5.07
2023-03-21T07:15:01.036Z,3.05
2023-03-21T07:18:02.575Z,3.78
2023-03-21T07:21:04.288Z,2.22
2023-03-21T07:24:06.077Z,4.00
2023-03-21T07:27:07.610Z,3.58
2023-03-21T07:30:10.356Z,3.70
2023-03-21T07:33:12.232Z,3.35
2023-03-21T07:36:15.509Z,2.45
2023-03-21T07:39:17.618Z,3.30
2023-03-21T07:42:19.544Z,3.33
2023-03-21T07:45:22.012Z,2.63
2023-03-21T07:48:23.652Z,3.90
2023-03-21T07:51:25.165Z,5.80
2023-03-21T07:54:28.476Z,3.35
2023-03-21T07:57:30.175Z,2.60
2023-03-21T08:00:32.046Z,2.97
2023-03-21T08:03:33.792Z,2.50
2023-03-21T08:06:35.395Z,2.08
2023-03-21T08:09:37.310Z,2.40
2023-03-21T08:12:39.193Z,1.92
2023-03-21T08:15:42.254Z,3.50
2023-03-21T08:18:43.948Z,3.92
2023-03-21T08:21:45.484Z,2.15
2023-03-21T08:24:47.003Z,3.05
2023-03-21T08:27:50.252Z,2.13
2023-03-21T08:30:51.918Z,2.17
2023-03-21T08:33:54.728Z,1.80
2023-03-21T08:36:56.244Z,2.45
2023-03-21T08:39:57.810Z,1.40
2023-03-21T08:42:59.695Z,3.50
2023-03-21T08:46:04.069Z,2.17
2023-03-21T08:49:05.961Z,1.85
2023-03-21T08:52:07.758Z,3.30
2023-03-21T08:55:10.660Z,2.03
2023-03-21T08:58:12.173Z,2.05
2023-03-21T09:01:15.434Z,1.48
2023-03-21T09:04:18.839Z,2.35
2023-03-21T09:07:22.190Z,2.20
2023-03-21T09:10:23.968Z,2.97
2023-03-21T09:13:25.540Z,2.08
2023-03-21T09:16:29.868Z,2.80
2023-03-21T09:19:31.804Z,2.45
2023-03-21T09:22:33.642Z,4.00
2023-03-21T09:25:36.670Z,1.77
2023-03-21T09:28:38.894Z,1.50
2023-03-21T09:31:40.546Z,2.67
2023-03-21T09:34:42.230Z,1.60
2023-03-21T09:37:44.627Z,2.72
2023-03-21T09:40:56.971Z,3.55
2023-03-21T09:44:24.628Z,2.20
2023-03-21T09:47:34.685Z,2.50
2023-03-21T09:50:38.678Z,3.08
2023-03-21T09:53:42.566Z,1.38
2023-03-21T09:56:45.373Z,2.40
2023-03-21T09:59:49.523Z,2.47
2023-03-21T10:02:57.306Z,1.52
2023-03-21T10:06:01.464Z,4.15
2023-03-21T10:09:15.412Z,3.33
2023-03-21T10:12:22.492Z,2.65
2023-03-21T10:15:26.616Z,3.38
2023-03-21T10:18:31.032Z,4.88
2023-03-21T10:21:58.589Z,1.83
2023-03-21T10:24:54.153Z,3.25
2023-03-21T10:27:55.720Z,3.60
2023-03-21T10:31:00.913Z,1.27
2023-03-21T10:34:09.925Z,3.38
2023-03-21T10:37:13.935Z,2.17
2023-03-21T10:40:17.547Z,3.45
2023-03-21T10:43:26.904Z,3.33
2023-03-21T10:46:29.052Z,2.88
2023-03-21T10:49:40.209Z,3.60
2023-03-21T10:52:55.863Z,3.35
2023-03-21T10:56:00.750Z,2.38
2023-03-21T10:59:03.734Z,2.47
2023-03-21T11:02:06.376Z,3.92
2023-03-21T11:05:24.342Z,4.88
2023-03-21T11:08:27.324Z,3.83
2023-03-21T11:11:41.593Z,3.15
2023-03-21T11:14:51.033Z,2.33
2023-03-21T11:17:52.726Z,4.03
2023-03-21T11:20:58.117Z,4.13
2023-03-21T11:23:59.636Z,3.83
2023-03-21T11:27:06.813Z,4.30
2023-03-21T11:30:22.394Z,3.67
2023-03-21T11:33:28.649Z,3.70
2023-03-21T11:36:36.890Z,5.10
2023-03-21T11:39:41.091Z,1.50
2023-03-21T11:42:45.167Z,2.97
2023-03-21T11:45:58.215Z,5.28
2023-03-21T11:49:00.589Z,2.00
2023-03-21T11:52:41.244Z,3.22
2023-03-21T11:55:51.664Z,7.68
2023-03-21T11:59:30.731Z,7.53
2023-03-21T12:02:48.301Z,6.70
2023-03-21T12:05:56.162Z,6.78
2023-03-21T12:09:26.196Z,9.98
2023-03-21T12:12:39.138Z,7.65
2023-03-21T12:15:55.584Z,9.88
2023-03-21T12:19:19.365Z,10.43
2023-03-21T12:22:31.007Z,9.10
2023-03-21T12:25:35.967Z,10.63
2023-03-21T12:29:04.882Z,8.77
2023-03-21T12:32:11.064Z,7.60
2023-03-21T12:35:35.954Z,7.82
2023-03-21T12:38:54.475Z,8.60
2023-03-21T12:42:25.298Z,8.35
2023-03-21T12:45:46.163Z,9.05
2023-03-21T12:49:00.191Z,6.90
2023-03-21T12:52:06.500Z,11.90
2023-03-21T12:55:14.766Z,8.25
2023-03-21T12:58:22.780Z,6.97
2023-03-21T13:01:25.624Z,6.22
2023-03-21T13:04:33.305Z,6.03
2023-03-21T13:07:39.839Z,5.68
2023-03-21T13:14:03.834Z,8.63
2023-03-21T13:17:21.741Z,5.43
2023-03-21T13:20:35.550Z,9.85
2023-03-21T13:23:39.053Z,6.15
2023-03-21T13:26:45.993Z,7.63
2023-03-21T13:29:49.839Z,8.05
2023-03-21T13:33:08.300Z,4.90
2023-03-21T13:36:14.612Z,5.10
2023-03-21T13:39:28.750Z,6.15
2023-03-21T13:42:33.556Z,6.40
2023-03-21T13:45:53.268Z,8.50
2023-03-21T13:49:10.005Z,4.40
2023-03-21T13:52:12.016Z,4.72
2023-03-21T13:55:20.020Z,5.88
2023-03-21T13:58:39.105Z,5.63
2023-03-21T14:01:57.680Z,5.40
2023-03-21T14:05:20.622Z,6.50
2023-03-21T14:08:36.550Z,3.83
2023-03-21T14:11:44.455Z,5.65
2023-03-21T14:15:19.599Z,3.30
2023-03-21T14:18:35.179Z,7.07
2023-03-21T14:21:53.859Z,6.00
2023-03-21T14:24:57.870Z,9.45
2023-03-21T14:28:03.793Z,6.97
2023-03-21T14:31:05.638Z,6.95
2023-03-21T14:34:09.447Z,6.85
2023-03-21T14:37:11.082Z,4.70
2023-03-21T14:40:25.450Z,6.53
2023-03-21T14:43:28.101Z,5.13
2023-03-21T14:46:29.586Z,3.15
2023-03-21T14:49:34.661Z,6.55
2023-03-21T14:52:37.010Z,5.40
2023-03-21T14:55:44.446Z,6.15
2023-03-21T14:58:47.735Z,3.78
2023-03-21T15:01:52.393Z,3.97
2023-03-21T15:04:59.508Z,5.57
2023-03-21T15:08:08.406Z,6.47
2023-03-21T15:11:12.949Z,6.50
2023-03-21T15:14:16.316Z,7.18
2023-03-21T15:17:19.237Z,4.82
2023-03-21T15:20:24.086Z,5.30
2023-03-21T15:23:38.061Z,6.75
2023-03-21T15:26:43.769Z,7.13
2023-03-21T15:29:46.526Z,6.30
2023-03-21T15:32:48.673Z,5.47
2023-03-21T15:35:56.561Z,6.18
2023-03-21T15:39:02.648Z,6.18
2023-03-21T15:42:04.191Z,8.23
2023-03-21T15:45:15.539Z,6.72
2023-03-21T15:48:21.644Z,5.55
2023-03-21T15:51:23.865Z,3.40
2023-03-21T15:54:36.946Z,5.20
2023-03-21T15:57:47.402Z,5.47
2023-03-21T16:00:54.913Z,6.97
2023-03-21T16:04:02.086Z,4.05
2023-03-21T16:07:15.959Z,4.90
2023-03-21T16:10:29.060Z,5.32
2023-03-21T16:13:30.644Z,6.60
2023-03-21T16:16:32.279Z,5.32
2023-03-21T16:19:34.263Z,8.75
2023-03-21T16:22:35.849Z,5.80
2023-03-21T16:25:37.423Z,3.92
2023-03-21T16:28:38.945Z,3.85
2023-03-21T16:31:40.567Z,2.33
2023-03-21T16:34:42.750Z,4.55
2023-03-21T16:37:45.240Z,2.42
2023-03-21T16:40:46.940Z,3.15
2023-03-21T16:43:48.969Z,4.32
2023-03-21T16:46:50.528Z,5.35
2023-03-21T16:49:52.087Z,3.00
2023-03-21T16:52:55.301Z,3.65
2023-03-21T16:56:02.434Z,3.70
2023-03-21T16:59:05.894Z,5.30
2023-03-21T17:02:16.535Z,4.18
2023-03-21T17:05:18.118Z,4.93
2023-03-21T17:08:21.744Z,3.80
2023-03-21T17:11:25.427Z,4.85
2023-03-21T17:14:27.099Z,4.70
2023-03-21T17:17:28.574Z,4.82
2023-03-21T17:20:37.665Z,3.80
2023-03-21T17:23:39.614Z,3.20
2023-03-21T17:26:41.291Z,3.42
2023-03-21T17:29:42.881Z,4.22
2023-03-21T17:32:44.437Z,4.05
2023-03-21T17:35:45.933Z,4.57
2023-03-21T17:38:47.774Z,6.53
2023-03-21T17:41:50.696Z,2.85
2023-03-21T17:44:52.166Z,5.05
2023-03-21T17:47:54.952Z,6.95
2023-03-21T17:50:56.778Z,9.13
2023-03-21T17:53:59.019Z,5.50
2023-03-21T17:57:00.578Z,7.97
2023-03-21T18:00:05.130Z,5.32
2023-03-21T18:03:13.400Z,4.45
2023-03-21T18:06:17.659Z,3.40
2023-03-21T18:09:21.717Z,4.07
2023-03-21T18:12:23.305Z,4.45
2023-03-21T18:15:30.114Z,5.80
2023-03-21T18:18:32.326Z,6.30
2023-03-21T18:21:35.831Z,3.75
2023-03-21T18:24:37.574Z,5.13
2023-03-21T18:27:59.405Z,5.38
2023-03-21T18:31:10.377Z,3.85
2023-03-21T18:34:14.857Z,2.95
2023-03-21T18:37:16.306Z,3.40
2023-03-21T18:40:21.976Z,2.65
2023-03-21T18:44:01.864Z,3.15
2023-03-21T18:46:47.400Z,2.83
2023-03-21T18:50:12.714Z,4.45
2023-03-21T18:53:10.478Z,2.80
2023-03-21T18:56:46.595Z,4.13
2023-03-21T18:59:36.674Z,4.68
2023-03-21T19:02:45.545Z,3.88
2023-03-21T19:05:47.781Z,8.07
2023-03-21T19:08:49.310Z,4.72
2023-03-21T19:11:51.740Z,4.10
2023-03-21T19:14:54.095Z,4.22
2023-03-21T19:18:33.027Z,3.15
2023-03-21T19:21:17.272Z,4.28
2023-03-21T19:24:27.641Z,6.20
2023-03-21T19:27:29.970Z,3.72
2023-03-21T19:30:31.564Z,3.88
2023-03-21T19:33:33.922Z,5.18
2023-03-21T19:36:35.757Z,4.35
2023-03-21T19:39:37.840Z,6.25
2023-03-21T19:42:40.261Z,6.22
2023-03-21T19:45:52.381Z,4.82
2023-03-21T19:48:56.453Z,4.80
2023-03-21T19:51:58.193Z,3.08
2023-03-21T19:54:59.681Z,3.53
2023-03-21T19:58:01.367Z,3.85
2023-03-21T20:01:02.875Z,3.42
2023-03-21T20:04:04.605Z,4.88
2023-03-21T20:07:06.601Z,4.10
2023-03-21T20:10:09.003Z,2.78
2023-03-21T20:13:10.564Z,3.15
2023-03-21T20:16:18.181Z,5.63
2023-03-21T20:19:20.089Z,2.72
2023-03-21T20:22:31.179Z,3.63
2023-03-21T20:25:45.495Z,4.95
2023-03-21T20:28:56.497Z,3.45
2023-03-21T20:32:08.553Z,5.65
2023-03-21T20:35:20.154Z,2.25
2023-03-21T20:38:26.151Z,4.07
2023-03-21T20:41:27.642Z,2.92
2023-03-21T20:44:51.955Z,3.85
2023-03-21T20:47:50.618Z,3.28
2023-03-21T20:50:57.848Z,2.38
2023-03-21T20:54:02.553Z,3.50
2023-03-21T20:57:05.008Z,3.10
2023-03-21T21:00:13.458Z,4.00
2023-03-21T21:03:15.826Z,2.22
2023-03-21T21:06:21.586Z,3.83
2023-03-21T21:09:23.198Z,2.63
2023-03-21T21:12:28.598Z,3.38
2023-03-21T21:15:30.337Z,3.47
2023-03-21T21:18:32.644Z,3.85
2023-03-21T21:21:34.435Z,3.03
2023-03-21T21:24:35.916Z,6.25
2023-03-21T21:27:37.471Z,3.58
2023-03-21T21:30:41.270Z,4.05
2023-03-21T21:33:44.795Z,2.55
2023-03-21T21:36:46.555Z,2.65
2023-03-21T21:39:48.442Z,1.83
2023-03-21T21:42:50.185Z,3.50
2023-03-21T21:45:52.371Z,2.90
2023-03-21T21:48:53.846Z,2.25
2023-03-21T21:51:56.169Z,2.80
2023-03-21T21:54:57.674Z,1.40
2023-03-21T21:57:59.723Z,2.65
2023-03-21T22:01:01.781Z,2.13
2023-03-21T22:04:06.222Z,2.08
2023-03-21T22:07:14.620Z,1.45
2023-03-21T22:10:16.287Z,3.38
2023-03-21T22:13:17.815Z,2.78
2023-03-21T22:16:19.291Z,1.77
2023-03-21T22:19:21.337Z,3.28
2023-03-21T22:22:22.835Z,2.17
2023-03-21T22:25:24.428Z,1.95
2023-03-21T22:28:25.958Z,2.72
2023-03-21T22:31:27.467Z,2.08
2023-03-21T22:34:29.142Z,2.55
2023-03-21T22:37:35.846Z,1.90
2023-03-21T22:40:37.834Z,1.80
2023-03-21T22:43:39.663Z,2.63
2023-03-21T22:46:41.148Z,2.63
2023-03-21T22:49:44.989Z,0.98
2023-03-21T22:52:46.453Z,1.88
2023-03-21T22:55:47.946Z,3.08
2023-03-21T22:58:49.409Z,1.73
2023-03-21T23:01:50.991Z,1.52
2023-03-21T23:04:52.494Z,2.47
2023-03-21T23:07:54.131Z,2.50
2023-03-21T23:10:56.016Z,3.10
2023-03-21T23:14:07.164Z,3.08
2023-03-21T23:17:10.045Z,2.15
2023-03-21T23:20:12.318Z,1.83
2023-03-21T23:23:13.785Z,1.40
2023-03-21T23:26:17.861Z,1.52
2023-03-21T23:29:19.398Z,2.00
2023-03-21T23:32:21.253Z,1.70
2023-03-21T23:35:22.763Z,1.25
2023-03-21T23:38:24.392Z,1.60
2023-03-21T23:41:26.043Z,2.05
2023-03-21T23:44:27.929Z,1.50
2023-03-21T23:47:30.834Z,1.77
2023-03-21T23:50:32.373Z,2.13
2023-03-21T23:53:33.902Z,1.58
2023-03-21T23:56:35.981Z,2.20
2023-03-21T23:59:37.503Z,1.52
